createdAt,value
2022-11-21T00:00:22.256Z,978.55
2022-11-21T00:01:22.255Z,978.50
2022-11-21T00:02:22.294Z,978.51
2022-11-21T00:03:22.239Z,978.56
2022-11-21T00:04:22.247Z,978.59
2022-11-21T00:05:22.223Z,978.58
2022-11-21T00:06:22.222Z,978.52
2022-11-21T00:07:22.268Z,978.49
2022-11-21T00:08:22.206Z,978.49
2022-11-21T00:09:22.196Z,978.48
2022-11-21T00:10:22.198Z,978.49
2022-11-21T00:11:22.188Z,978.44
2022-11-21T00:12:22.203Z,978.44
2022-11-21T00:13:22.177Z,978.53
2022-11-21T00:14:22.163Z,978.44
2022-11-21T00:15:22.164Z,978.49
2022-11-21T00:16:22.152Z,978.50
2022-11-21T00:17:22.145Z,978.49
2022-11-21T00:18:22.146Z,978.54
2022-11-21T00:19:22.126Z,978.54
2022-11-21T00:20:22.130Z,978.55
2022-11-21T00:21:22.118Z,978.49
2022-11-21T00:22:22.111Z,978.56
2022-11-21T00:23:22.121Z,978.52
2022-11-21T00:24:22.090Z,978.51
2022-11-21T00:25:23.083Z,978.56
2022-11-21T00:26:22.092Z,978.56
2022-11-21T00:27:22.092Z,978.59
2022-11-21T00:28:22.071Z,978.60
2022-11-21T00:29:22.079Z,978.62
2022-11-21T00:30:22.066Z,978.60
2022-11-21T00:31:22.048Z,978.65
2022-11-21T00:32:22.053Z,978.68
2022-11-21T00:33:22.039Z,978.60
2022-11-21T00:34:23.717Z,978.69
2022-11-21T00:35:23.050Z,978.65
2022-11-21T00:36:22.491Z,978.67
2022-11-21T00:37:22.727Z,978.68
2022-11-21T00:38:22.427Z,978.77
2022-11-21T00:39:23.942Z,978.74
2022-11-21T00:40:23.438Z,978.80
2022-11-21T00:41:22.778Z,978.75
2022-11-21T00:42:22.425Z,978.71
2022-11-21T00:43:22.331Z,978.78
2022-11-21T00:44:22.390Z,978.77
2022-11-21T00:45:24.540Z,978.75
2022-11-21T00:46:23.323Z,978.74
2022-11-21T00:47:22.918Z,978.78
2022-11-21T00:48:23.087Z,978.78
2022-11-21T00:49:22.943Z,978.77
2022-11-21T00:50:22.425Z,978.82
2022-11-21T00:51:22.287Z,978.80
2022-11-21T00:52:22.390Z,978.79
2022-11-21T00:53:23.134Z,978.81
2022-11-21T00:54:23.118Z,978.80
2022-11-21T00:55:23.659Z,978.81
2022-11-21T00:56:23.035Z,978.76
2022-11-21T00:57:22.421Z,978.74
2022-11-21T00:58:23.360Z,978.76
2022-11-21T00:59:22.361Z,978.83
2022-11-21T01:00:22.456Z,978.80
2022-11-21T01:01:22.387Z,978.68
2022-11-21T01:02:22.355Z,978.77
2022-11-21T01:03:22.566Z,978.79
2022-11-21T01:04:23.120Z,978.82
2022-11-21T01:05:23.094Z,978.80
2022-11-21T01:06:23.100Z,978.82
2022-11-21T01:07:22.318Z,978.84
2022-11-21T01:08:22.393Z,978.77
2022-11-21T01:09:22.298Z,978.81
2022-11-21T01:10:22.322Z,978.82
2022-11-21T01:11:23.231Z,978.86
2022-11-21T01:12:22.317Z,978.92
2022-11-21T01:13:22.322Z,978.90
2022-11-21T01:14:23.201Z,978.89
2022-11-21T01:15:22.233Z,979.01
2022-11-21T01:16:23.063Z,978.91
2022-11-21T01:17:22.250Z,978.94
2022-11-21T01:18:22.264Z,978.96
2022-11-21T01:19:22.277Z,978.91
2022-11-21T01:20:21.718Z,978.97
2022-11-21T01:21:21.708Z,978.96
2022-11-21T01:22:21.693Z,978.98
2022-11-21T01:23:21.686Z,978.92
2022-11-21T01:24:21.689Z,978.96
2022-11-21T01:25:21.692Z,979.08
2022-11-21T01:26:21.676Z,979.08
2022-11-21T01:27:21.669Z,979.12
2022-11-21T01:28:21.658Z,979.10
2022-11-21T01:29:21.651Z,979.07
2022-11-21T01:30:21.646Z,979.18
2022-11-21T01:31:21.657Z,979.18
2022-11-21T01:32:21.624Z,979.25
2022-11-21T01:33:21.630Z,979.27
2022-11-21T01:34:21.617Z,979.23
2022-11-21T01:35:21.610Z,979.31
2022-11-21T01:36:21.622Z,979.31
2022-11-21T01:37:21.598Z,979.31
2022-11-21T01:38:21.589Z,979.33
2022-11-21T01:39:21.593Z,979.36
2022-11-21T01:40:21.583Z,979.41
2022-11-21T01:41:21.567Z,979.39
2022-11-21T01:42:21.578Z,979.32
2022-11-21T01:43:21.565Z,979.45
2022-11-21T01:44:21.556Z,979.42
2022-11-21T01:45:21.546Z,979.40
2022-11-21T01:46:21.554Z,979.37
2022-11-21T01:47:21.546Z,979.36
2022-11-21T01:48:21.526Z,979.42
2022-11-21T01:49:21.531Z,979.34
2022-11-21T01:50:21.509Z,979.49
2022-11-21T01:51:21.501Z,979.50
2022-11-21T01:52:21.501Z,979.44
2022-11-21T01:53:21.505Z,979.50
2022-11-21T01:54:21.477Z,979.57
2022-11-21T01:55:21.476Z,979.60
2022-11-21T01:56:21.470Z,979.56
2022-11-21T01:57:21.474Z,979.61
2022-11-21T01:58:21.469Z,979.61
2022-11-21T01:59:21.449Z,979.65
2022-11-21T02:00:21.458Z,979.67
2022-11-21T02:01:21.493Z,979.70
2022-11-21T02:02:21.443Z,979.68
2022-11-21T02:03:21.429Z,979.71
2022-11-21T02:04:21.427Z,979.75
2022-11-21T02:05:21.432Z,979.78
2022-11-21T02:06:21.405Z,979.79
2022-11-21T02:07:21.476Z,979.76
2022-11-21T02:08:21.392Z,979.79
2022-11-21T02:09:21.382Z,979.82
2022-11-21T02:10:21.374Z,979.86
2022-11-21T02:11:21.372Z,979.84
2022-11-21T02:12:21.360Z,979.84
2022-11-21T02:13:21.370Z,979.85
2022-11-21T02:14:21.352Z,979.89
2022-11-21T02:15:21.344Z,979.90
2022-11-21T02:16:21.336Z,979.91
2022-11-21T02:17:21.330Z,979.96
2022-11-21T02:18:21.335Z,979.96
2022-11-21T02:19:21.321Z,980.00
2022-11-21T02:20:21.314Z,980.00
2022-11-21T02:21:21.307Z,979.96
2022-11-21T02:22:21.298Z,980.05
2022-11-21T02:23:21.306Z,980.01
2022-11-21T02:24:21.305Z,979.99
2022-11-21T02:25:21.285Z,980.05
2022-11-21T02:26:21.276Z,980.00
2022-11-21T02:27:21.268Z,980.02
2022-11-21T02:28:21.262Z,980.03
2022-11-21T02:29:21.285Z,980.01
2022-11-21T02:30:21.237Z,980.07
2022-11-21T02:31:21.246Z,980.10
2022-11-21T02:32:21.237Z,980.08
2022-11-21T02:33:21.234Z,980.13
2022-11-21T02:34:21.220Z,980.10
2022-11-21T02:35:21.221Z,980.16
2022-11-21T02:36:21.205Z,980.15
2022-11-21T02:37:21.226Z,980.19
2022-11-21T02:38:21.192Z,980.22
2022-11-21T02:39:21.180Z,980.21
2022-11-21T02:40:21.196Z,980.22
2022-11-21T02:41:21.172Z,980.22
2022-11-21T02:42:21.179Z,980.23
2022-11-21T02:43:21.165Z,980.24
2022-11-21T02:44:21.157Z,980.35
2022-11-21T02:45:21.167Z,980.33
2022-11-21T02:46:21.138Z,980.36
2022-11-21T02:47:22.133Z,980.36
2022-11-21T02:48:21.165Z,980.43
2022-11-21T02:49:21.118Z,980.42
2022-11-21T02:50:21.108Z,980.39
2022-11-21T02:51:21.112Z,980.46
2022-11-21T02:52:21.097Z,980.43
2022-11-21T02:53:21.113Z,980.49
2022-11-21T02:54:21.090Z,980.52
2022-11-21T02:55:21.071Z,980.51
2022-11-21T02:56:21.073Z,980.51
2022-11-21T02:57:21.083Z,980.48
2022-11-21T02:58:21.057Z,980.50
2022-11-21T02:59:21.042Z,980.55
2022-11-21T03:00:22.053Z,980.52
2022-11-21T03:01:21.090Z,980.55
2022-11-21T03:02:21.052Z,980.54
2022-11-21T03:03:21.019Z,980.53
2022-11-21T03:04:21.009Z,980.59
2022-11-21T03:05:21.011Z,980.61
2022-11-21T03:06:21.013Z,980.67
2022-11-21T03:07:21.016Z,980.65
2022-11-21T03:08:21.005Z,980.69
2022-11-21T03:09:20.984Z,980.76
2022-11-21T03:10:21.001Z,980.72
2022-11-21T03:11:20.969Z,980.74
2022-11-21T03:12:20.966Z,980.83
2022-11-21T03:13:20.976Z,980.79
2022-11-21T03:14:20.948Z,980.83
2022-11-21T03:15:20.937Z,980.82
2022-11-21T03:16:20.937Z,980.81
2022-11-21T03:17:20.928Z,980.82
2022-11-21T03:18:20.928Z,980.81
2022-11-21T03:19:20.917Z,980.77
2022-11-21T03:20:20.908Z,980.85
2022-11-21T03:21:20.912Z,980.87
2022-11-21T03:22:20.892Z,980.87
2022-11-21T03:23:20.884Z,980.82
2022-11-21T03:24:20.881Z,980.88
2022-11-21T03:25:20.876Z,980.83
2022-11-21T03:26:20.875Z,980.88
2022-11-21T03:27:20.856Z,980.91
2022-11-21T03:28:20.849Z,980.85
2022-11-21T03:29:20.848Z,980.85
2022-11-21T03:30:20.861Z,980.87
2022-11-21T03:31:20.828Z,980.88
2022-11-21T03:32:20.824Z,980.88
2022-11-21T03:33:20.819Z,980.87
2022-11-21T03:34:20.808Z,980.86
2022-11-21T03:35:20.813Z,980.83
2022-11-21T03:36:20.804Z,980.84
2022-11-21T03:37:20.792Z,980.86
2022-11-21T03:38:20.798Z,980.78
2022-11-21T03:39:20.770Z,980.82
2022-11-21T03:40:20.773Z,980.91
2022-11-21T03:41:20.784Z,980.90
2022-11-21T03:42:20.744Z,980.89
2022-11-21T03:43:20.744Z,980.92
2022-11-21T03:44:20.729Z,980.89
2022-11-21T03:45:20.733Z,980.93
2022-11-21T03:46:20.730Z,980.90
2022-11-21T03:47:20.731Z,980.91
2022-11-21T03:48:20.709Z,980.89
2022-11-21T03:49:20.709Z,980.89
2022-11-21T03:50:20.701Z,980.96
2022-11-21T03:51:20.692Z,980.87
2022-11-21T03:52:20.696Z,980.87
2022-11-21T03:53:20.668Z,980.85
2022-11-21T03:54:20.668Z,980.93
2022-11-21T03:55:20.664Z,980.85
2022-11-21T03:56:20.661Z,980.88
2022-11-21T03:57:20.672Z,980.92
2022-11-21T03:58:20.640Z,980.92
2022-11-21T03:59:20.637Z,980.90
2022-11-21T04:00:20.629Z,980.94
2022-11-21T04:01:20.735Z,980.95
2022-11-21T04:02:21.621Z,980.90
2022-11-21T04:03:20.613Z,980.94
2022-11-21T04:04:20.605Z,980.92
2022-11-21T04:05:20.580Z,981.01
2022-11-21T04:06:20.598Z,981.01
2022-11-21T04:07:20.623Z,981.02
2022-11-21T04:08:21.580Z,981.07
2022-11-21T04:09:20.569Z,981.09
2022-11-21T04:10:20.568Z,981.07
2022-11-21T04:11:20.553Z,981.11
2022-11-21T04:12:20.543Z,981.12
2022-11-21T04:13:20.552Z,981.16
2022-11-21T04:14:20.544Z,981.24
2022-11-21T04:15:20.532Z,981.26
2022-11-21T04:16:20.519Z,981.23
2022-11-21T04:17:20.513Z,981.24
2022-11-21T04:18:20.507Z,981.31
2022-11-21T04:19:20.512Z,981.31
2022-11-21T04:20:20.500Z,981.29
2022-11-21T04:21:20.489Z,981.29
2022-11-21T04:22:20.483Z,981.29
2022-11-21T04:23:20.471Z,981.34
2022-11-21T04:24:20.474Z,981.35
2022-11-21T04:25:20.492Z,981.31
2022-11-21T04:26:20.525Z,981.35
2022-11-21T04:27:20.440Z,981.41
2022-11-21T04:28:20.435Z,981.31
2022-11-21T04:29:20.432Z,981.30
2022-11-21T04:30:20.436Z,981.29
2022-11-21T04:31:20.423Z,981.26
2022-11-21T04:32:20.422Z,981.28
2022-11-21T04:33:20.406Z,981.30
2022-11-21T04:34:20.406Z,981.26
2022-11-21T04:35:20.384Z,981.16
2022-11-21T04:36:20.392Z,981.14
2022-11-21T04:37:20.423Z,981.18
2022-11-21T04:38:20.359Z,981.18
2022-11-21T04:39:20.368Z,981.16
2022-11-21T04:40:20.355Z,981.15
2022-11-21T04:41:20.364Z,981.18
2022-11-21T04:42:20.345Z,981.16
2022-11-21T04:43:20.342Z,981.15
2022-11-21T04:44:20.332Z,981.16
2022-11-21T04:45:20.324Z,981.23
2022-11-21T04:46:20.337Z,981.29
2022-11-21T04:47:20.316Z,981.29
2022-11-21T04:48:20.309Z,981.33
2022-11-21T04:49:20.296Z,981.37
2022-11-21T04:50:20.304Z,981.42
2022-11-21T04:51:20.320Z,981.42
2022-11-21T04:52:20.286Z,981.34
2022-11-21T04:53:20.285Z,981.44
2022-11-21T04:54:20.269Z,981.40
2022-11-21T04:55:20.256Z,981.37
2022-11-21T04:56:20.473Z,981.42
2022-11-21T04:57:20.244Z,981.40
2022-11-21T04:58:20.236Z,981.38
2022-11-21T04:59:20.244Z,981.38
2022-11-21T05:00:24.189Z,981.31
2022-11-21T05:01:21.275Z,981.35
2022-11-21T05:02:20.215Z,981.31
2022-11-21T05:03:20.208Z,981.38
2022-11-21T05:04:20.205Z,981.36
2022-11-21T05:05:20.414Z,981.38
2022-11-21T05:06:20.188Z,981.43
2022-11-21T05:07:20.222Z,981.44
2022-11-21T05:08:20.173Z,981.55
2022-11-21T05:09:20.177Z,981.47
2022-11-21T05:10:20.175Z,981.51
2022-11-21T05:11:20.160Z,981.52
2022-11-21T05:12:20.148Z,981.44
2022-11-21T05:13:20.152Z,981.43
2022-11-21T05:14:20.136Z,981.46
2022-11-21T05:15:24.365Z,981.49
2022-11-21T05:16:21.126Z,981.44
2022-11-21T05:17:20.122Z,981.43
2022-11-21T05:18:20.113Z,981.47
2022-11-21T05:19:20.088Z,981.51
2022-11-21T05:20:20.087Z,981.44
2022-11-21T05:21:20.108Z,981.48
2022-11-21T05:22:20.092Z,981.48
2022-11-21T05:23:20.069Z,981.51
2022-11-21T05:24:20.071Z,981.44
2022-11-21T05:25:20.072Z,981.45
2022-11-21T05:26:20.065Z,981.49
2022-11-21T05:27:20.032Z,981.49
2022-11-21T05:28:20.041Z,981.46
2022-11-21T05:29:25.165Z,981.53
2022-11-21T05:30:22.031Z,981.52
2022-11-21T05:31:20.040Z,981.44
2022-11-21T05:32:20.033Z,981.49
2022-11-21T05:33:20.012Z,981.47
2022-11-21T05:34:20.016Z,981.50
2022-11-21T05:35:19.995Z,981.52
2022-11-21T05:36:19.999Z,981.48
2022-11-21T05:37:20.000Z,981.49
2022-11-21T05:38:19.973Z,981.44
2022-11-21T05:39:19.972Z,981.45
2022-11-21T05:40:19.960Z,981.46
2022-11-21T05:41:19.948Z,981.43
2022-11-21T05:42:19.972Z,981.43
2022-11-21T05:43:19.944Z,981.48
2022-11-21T05:44:19.927Z,981.54
2022-11-21T05:45:20.572Z,981.47
2022-11-21T05:46:19.924Z,981.54
2022-11-21T05:47:19.925Z,981.45
2022-11-21T05:48:20.032Z,981.46
2022-11-21T05:49:19.944Z,981.48
2022-11-21T05:50:19.892Z,981.46
2022-11-21T05:51:19.888Z,981.47
2022-11-21T05:52:19.888Z,981.50
2022-11-21T05:53:20.898Z,981.51
2022-11-21T05:54:19.864Z,981.54
2022-11-21T05:55:19.857Z,981.57
2022-11-21T05:56:19.834Z,981.58
2022-11-21T05:57:19.846Z,981.58
2022-11-21T05:58:19.856Z,981.59
2022-11-21T05:59:19.824Z,981.60
2022-11-21T06:00:19.833Z,981.58
2022-11-21T06:01:19.817Z,981.55
2022-11-21T06:02:19.808Z,981.57
2022-11-21T06:03:19.816Z,981.64
2022-11-21T06:04:19.813Z,981.62
2022-11-21T06:05:19.796Z,981.62
2022-11-21T06:06:24.730Z,981.63
2022-11-21T06:07:21.821Z,981.62
2022-11-21T06:08:19.792Z,981.69
2022-11-21T06:09:19.760Z,981.76
2022-11-21T06:10:19.778Z,981.68
2022-11-21T06:11:19.759Z,981.67
2022-11-21T06:12:25.101Z,981.73
2022-11-21T06:13:21.749Z,981.72
2022-11-21T06:14:19.736Z,981.75
2022-11-21T06:15:19.754Z,981.75
2022-11-21T06:16:19.722Z,981.75
2022-11-21T06:17:19.712Z,981.76
2022-11-21T06:18:19.768Z,981.76
2022-11-21T06:19:19.701Z,981.74
2022-11-21T06:20:19.691Z,981.73
2022-11-21T06:21:19.708Z,981.75
2022-11-21T06:22:19.685Z,981.75
2022-11-21T06:23:19.672Z,981.70
2022-11-21T06:24:24.646Z,981.71
2022-11-21T06:25:20.664Z,981.70
2022-11-21T06:26:19.686Z,981.65
2022-11-21T06:27:19.648Z,981.66
2022-11-21T06:28:19.636Z,981.62
2022-11-21T06:29:19.636Z,981.62
2022-11-21T06:30:22.315Z,981.63
2022-11-21T06:31:20.638Z,981.72
2022-11-21T06:32:19.724Z,981.74
2022-11-21T06:33:19.649Z,981.73
2022-11-21T06:34:19.607Z,981.71
2022-11-21T06:35:19.623Z,981.73
2022-11-21T06:36:19.588Z,981.75
2022-11-21T06:37:19.584Z,981.78
2022-11-21T06:38:19.585Z,981.85
2022-11-21T06:39:20.574Z,981.85
2022-11-21T06:40:19.564Z,981.87
2022-11-21T06:41:19.563Z,981.87
2022-11-21T06:42:19.549Z,981.90
2022-11-21T06:43:19.556Z,981.88
2022-11-21T06:44:19.537Z,981.86
2022-11-21T06:45:19.536Z,981.89
2022-11-21T06:46:19.521Z,981.87
2022-11-21T06:47:19.533Z,981.84
2022-11-21T06:48:19.511Z,981.85
2022-11-21T06:49:19.509Z,981.85
2022-11-21T06:50:19.493Z,981.88
2022-11-21T06:51:19.488Z,981.79
2022-11-21T06:52:19.488Z,981.82
2022-11-21T06:53:19.500Z,981.77
2022-11-21T06:54:19.471Z,981.74
2022-11-21T06:55:19.464Z,981.81
2022-11-21T06:56:19.464Z,981.81
2022-11-21T06:57:19.455Z,981.82
2022-11-21T06:58:19.451Z,981.83
2022-11-21T06:59:19.448Z,981.80
2022-11-21T07:00:19.442Z,981.82
2022-11-21T07:01:19.482Z,981.76
2022-11-21T07:02:19.414Z,981.77
2022-11-21T07:03:19.423Z,981.77
2022-11-21T07:04:19.409Z,981.82
2022-11-21T07:05:19.408Z,981.77
2022-11-21T07:06:19.385Z,981.79
2022-11-21T07:07:19.399Z,981.78
2022-11-21T07:08:19.373Z,981.82
2022-11-21T07:09:33.417Z,981.82
2022-11-21T07:10:21.367Z,981.81
2022-11-21T07:11:26.481Z,981.85
2022-11-21T07:12:21.343Z,981.83
2022-11-21T07:13:19.336Z,981.90
2022-11-21T07:14:19.332Z,981.87
2022-11-21T07:15:19.336Z,981.90
2022-11-21T07:16:19.340Z,981.89
2022-11-21T07:17:19.309Z,982.01
2022-11-21T07:18:19.303Z,981.93
2022-11-21T07:19:19.296Z,981.92
2022-11-21T07:20:19.298Z,981.91
2022-11-21T07:21:19.300Z,981.95
2022-11-21T07:22:19.273Z,981.98
2022-11-21T07:23:19.269Z,981.93
2022-11-21T07:24:19.261Z,981.94
2022-11-21T07:25:19.253Z,981.93
2022-11-21T07:26:19.248Z,981.93
2022-11-21T07:27:19.300Z,981.99
2022-11-21T07:28:19.237Z,981.98
2022-11-21T07:29:19.228Z,982.02
2022-11-21T07:30:19.245Z,981.98
2022-11-21T07:31:19.217Z,982.00
2022-11-21T07:32:19.216Z,981.99
2022-11-21T07:33:19.215Z,981.99
2022-11-21T07:34:19.221Z,981.98
2022-11-21T07:35:19.229Z,982.02
2022-11-21T07:36:19.183Z,982.07
2022-11-21T07:37:19.181Z,982.00
2022-11-21T07:38:19.173Z,982.00
2022-11-21T07:39:19.168Z,981.95
2022-11-21T07:40:19.169Z,981.95
2022-11-21T07:41:19.152Z,981.96
2022-11-21T07:42:19.140Z,981.89
2022-11-21T07:43:19.129Z,981.93
2022-11-21T07:44:19.147Z,981.93
2022-11-21T07:45:19.139Z,981.96
2022-11-21T07:46:19.112Z,982.02
2022-11-21T07:47:19.108Z,981.94
2022-11-21T07:48:19.100Z,981.94
2022-11-21T07:49:19.112Z,981.93
2022-11-21T07:50:19.087Z,982.05
2022-11-21T07:51:19.117Z,982.00
2022-11-21T07:52:20.112Z,981.95
2022-11-21T07:53:19.065Z,981.96
2022-11-21T07:54:19.076Z,982.02
2022-11-21T07:55:19.068Z,981.95
2022-11-21T07:56:19.045Z,982.01
2022-11-21T07:57:19.042Z,981.95
2022-11-21T07:58:19.024Z,981.97
2022-11-21T07:59:19.037Z,982.02
2022-11-21T08:00:19.021Z,982.08
2022-11-21T08:01:19.046Z,982.05
2022-11-21T08:02:19.009Z,982.02
2022-11-21T08:03:19.000Z,981.99
2022-11-21T08:04:18.997Z,981.95
2022-11-21T08:05:18.984Z,981.95
2022-11-21T08:06:18.988Z,982.03
2022-11-21T08:07:19.034Z,981.98
2022-11-21T08:08:18.972Z,981.92
2022-11-21T08:09:18.960Z,981.92
2022-11-21T08:10:18.948Z,981.97
2022-11-21T08:11:18.957Z,981.98
2022-11-21T08:12:18.937Z,982.02
2022-11-21T08:13:18.938Z,981.94
2022-11-21T08:14:18.932Z,981.97
2022-11-21T08:15:18.912Z,981.93
2022-11-21T08:16:18.937Z,981.93
2022-11-21T08:17:18.913Z,981.97
2022-11-21T08:18:18.904Z,981.97
2022-11-21T08:19:18.900Z,981.98
2022-11-21T08:20:18.892Z,981.93
2022-11-21T08:21:20.108Z,981.96
2022-11-21T08:22:19.877Z,981.96
2022-11-21T08:23:18.874Z,981.92
2022-11-21T08:24:18.860Z,981.92
2022-11-21T08:25:18.851Z,981.94
2022-11-21T08:26:18.868Z,981.95
2022-11-21T08:27:18.905Z,981.94
2022-11-21T08:28:18.857Z,981.96
2022-11-21T08:29:18.828Z,981.96
2022-11-21T08:30:18.825Z,981.92
2022-11-21T08:31:18.834Z,982.01
2022-11-21T08:32:18.852Z,982.01
2022-11-21T08:33:18.812Z,981.99
2022-11-21T08:34:18.804Z,981.98
2022-11-21T08:35:18.800Z,982.00
2022-11-21T08:36:18.798Z,981.93
2022-11-21T08:37:18.800Z,981.97
2022-11-21T08:38:18.788Z,981.99
2022-11-21T08:39:18.768Z,981.98
2022-11-21T08:40:18.753Z,982.00
2022-11-21T08:41:18.758Z,982.03
2022-11-21T08:42:18.744Z,982.00
2022-11-21T08:43:18.745Z,981.96
2022-11-21T08:44:18.734Z,982.07
2022-11-21T08:45:18.744Z,982.03
2022-11-21T08:46:18.708Z,982.03
2022-11-21T08:47:18.713Z,981.96
2022-11-21T08:48:18.721Z,982.05
2022-11-21T08:49:18.709Z,982.05
2022-11-21T08:50:18.711Z,982.07
2022-11-21T08:51:18.689Z,982.08
2022-11-21T08:52:18.672Z,982.04
2022-11-21T08:53:18.681Z,982.04
2022-11-21T08:54:18.673Z,982.00
2022-11-21T08:55:18.677Z,982.02
2022-11-21T08:56:18.677Z,982.02
2022-11-21T08:57:18.651Z,982.01
2022-11-21T08:58:18.634Z,982.03
2022-11-21T08:59:18.636Z,981.99
2022-11-21T09:00:18.654Z,982.07
2022-11-21T09:01:18.692Z,982.02
2022-11-21T09:02:18.617Z,982.07
2022-11-21T09:03:23.598Z,982.08
2022-11-21T09:04:20.593Z,982.12
2022-11-21T09:05:18.592Z,981.99
2022-11-21T09:06:18.597Z,982.09
2022-11-21T09:07:18.619Z,981.96
2022-11-21T09:08:18.560Z,981.96
2022-11-21T09:09:24.894Z,981.97
2022-11-21T09:10:20.564Z,981.97
2022-11-21T09:11:18.560Z,981.94
2022-11-21T09:12:18.544Z,981.96
2022-11-21T09:13:18.537Z,982.02
2022-11-21T09:14:18.527Z,981.97
2022-11-21T09:15:18.532Z,982.03
2022-11-21T09:16:20.607Z,982.07
2022-11-21T09:17:19.520Z,982.03
2022-11-21T09:18:18.510Z,981.96
2022-11-21T09:19:18.503Z,982.00
2022-11-21T09:20:18.552Z,982.11
2022-11-21T09:21:18.494Z,982.09
2022-11-21T09:22:18.501Z,982.06
2022-11-21T09:23:18.510Z,981.97
2022-11-21T09:24:18.489Z,981.98
2022-11-21T09:25:18.476Z,982.01
2022-11-21T09:26:18.445Z,981.98
2022-11-21T09:27:18.436Z,981.98
2022-11-21T09:28:18.480Z,982.01
2022-11-21T09:29:18.430Z,982.02
2022-11-21T09:30:19.425Z,982.08
2022-11-21T09:31:18.413Z,982.07
2022-11-21T09:32:18.413Z,982.08
2022-11-21T09:33:18.426Z,982.06
2022-11-21T09:34:18.401Z,982.00
2022-11-21T09:35:18.405Z,982.05
2022-11-21T09:36:18.382Z,981.98
2022-11-21T09:37:18.387Z,982.02
2022-11-21T09:38:22.586Z,982.02
2022-11-21T09:39:20.388Z,982.07
2022-11-21T09:40:18.366Z,982.06
2022-11-21T09:41:18.348Z,982.04
2022-11-21T09:42:18.361Z,982.12
2022-11-21T09:43:18.344Z,982.08
2022-11-21T09:44:18.415Z,982.09
2022-11-21T09:45:18.325Z,982.09
2022-11-21T09:46:18.331Z,982.01
2022-11-21T09:47:18.316Z,982.05
2022-11-21T09:48:18.305Z,982.03
2022-11-21T09:49:18.315Z,982.03
2022-11-21T09:50:18.292Z,982.09
2022-11-21T09:51:18.288Z,982.06
2022-11-21T09:52:18.279Z,982.13
2022-11-21T09:53:18.259Z,982.15
2022-11-21T09:54:18.256Z,982.13
2022-11-21T09:55:18.279Z,982.09
2022-11-21T09:56:18.228Z,982.02
2022-11-21T09:57:18.240Z,982.04
2022-11-21T09:58:18.231Z,981.95
2022-11-21T09:59:18.224Z,981.97
2022-11-21T10:00:18.225Z,981.99
2022-11-21T10:01:18.371Z,982.03
2022-11-21T10:02:18.222Z,982.03
2022-11-21T10:03:22.335Z,982.01
2022-11-21T10:04:19.198Z,981.94
2022-11-21T10:05:18.180Z,981.95
2022-11-21T10:06:18.184Z,981.99
2022-11-21T10:07:18.214Z,981.95
2022-11-21T10:08:18.172Z,981.97
2022-11-21T10:09:18.156Z,981.96
2022-11-21T10:10:18.165Z,981.99
2022-11-21T10:11:20.202Z,982.01
2022-11-21T10:12:19.147Z,982.04
2022-11-21T10:13:18.172Z,981.96
2022-11-21T10:14:18.154Z,981.95
2022-11-21T10:15:18.123Z,981.94
2022-11-21T10:16:18.132Z,981.94
2022-11-21T10:17:18.107Z,981.89
2022-11-21T10:18:18.108Z,981.88
2022-11-21T10:19:18.104Z,981.86
2022-11-21T10:20:18.088Z,981.84
2022-11-21T10:21:18.080Z,981.81
2022-11-21T10:22:18.075Z,981.78
2022-11-21T10:23:18.080Z,981.75
2022-11-21T10:24:18.059Z,981.63
2022-11-21T10:25:19.767Z,981.59
2022-11-21T10:26:18.059Z,981.59
2022-11-21T10:27:18.043Z,981.52
2022-11-21T10:28:18.048Z,981.55
2022-11-21T10:29:18.033Z,981.61
2022-11-21T10:30:18.016Z,981.61
2022-11-21T10:31:18.032Z,981.64
2022-11-21T10:32:18.013Z,981.60
2022-11-21T10:33:18.000Z,981.56
2022-11-21T10:34:17.998Z,981.58
2022-11-21T10:35:17.992Z,981.61
2022-11-21T10:36:18.043Z,981.61
2022-11-21T10:37:17.978Z,981.61
2022-11-21T10:38:18.008Z,981.64
2022-11-21T10:39:17.967Z,981.63
2022-11-21T10:40:17.992Z,981.59
2022-11-21T10:41:17.958Z,981.61
2022-11-21T10:42:23.155Z,981.70
2022-11-21T10:43:19.943Z,981.65
2022-11-21T10:44:17.928Z,981.67
2022-11-21T10:45:17.920Z,981.64
2022-11-21T10:46:17.911Z,981.65
2022-11-21T10:47:17.915Z,981.59
2022-11-21T10:48:17.920Z,981.59
2022-11-21T10:49:17.895Z,981.59
2022-11-21T10:50:17.998Z,981.60
2022-11-21T10:51:17.883Z,981.62
2022-11-21T10:52:17.874Z,981.59
2022-11-21T10:53:17.879Z,981.61
2022-11-21T10:54:17.892Z,981.58
2022-11-21T10:55:17.855Z,981.53
2022-11-21T10:56:17.856Z,981.62
2022-11-21T10:57:17.847Z,981.53
2022-11-21T10:58:17.842Z,981.51
2022-11-21T10:59:17.844Z,981.52
2022-11-21T11:00:17.958Z,981.52
2022-11-21T11:01:17.871Z,981.48
2022-11-21T11:02:17.853Z,981.45
2022-11-21T11:03:17.815Z,981.42
2022-11-21T11:04:47.329Z,981.38
2022-11-21T11:05:19.791Z,981.41
2022-11-21T11:06:18.794Z,981.45
2022-11-21T11:07:17.834Z,981.46
2022-11-21T11:08:17.774Z,981.48
2022-11-21T11:09:17.783Z,981.44
2022-11-21T11:10:19.694Z,981.43
2022-11-21T11:11:17.767Z,981.43
2022-11-21T11:12:17.746Z,981.44
2022-11-21T11:13:45.121Z,981.44
2022-11-21T11:14:19.758Z,981.40
2022-11-21T11:15:17.735Z,981.33
2022-11-21T11:16:17.761Z,981.29
2022-11-21T11:17:17.721Z,981.24
2022-11-21T11:18:17.715Z,981.28
2022-11-21T11:19:17.725Z,981.20
2022-11-21T11:20:17.715Z,981.17
2022-11-21T11:21:17.694Z,981.11
2022-11-21T11:22:17.683Z,981.05
2022-11-21T11:23:17.683Z,981.05
2022-11-21T11:24:17.675Z,981.12
2022-11-21T11:25:17.690Z,981.05
2022-11-21T11:26:17.654Z,981.06
2022-11-21T11:27:17.644Z,981.01
2022-11-21T11:28:17.635Z,980.98
2022-11-21T11:29:17.642Z,980.90
2022-11-21T11:30:17.638Z,980.94
2022-11-21T11:31:17.631Z,980.97
2022-11-21T11:32:21.287Z,980.82
2022-11-21T11:33:17.608Z,980.80
2022-11-21T11:34:17.602Z,980.79
2022-11-21T11:35:17.595Z,980.78
2022-11-21T11:36:17.595Z,980.80
2022-11-21T11:37:17.575Z,980.78
2022-11-21T11:38:17.575Z,980.79
2022-11-21T11:39:17.569Z,980.72
2022-11-21T11:40:17.559Z,980.74
2022-11-21T11:41:17.556Z,980.68
2022-11-21T11:42:17.553Z,980.73
2022-11-21T11:43:17.539Z,980.67
2022-11-21T11:44:17.527Z,980.67
2022-11-21T11:45:17.529Z,980.68
2022-11-21T11:46:17.522Z,980.70
2022-11-21T11:47:17.526Z,980.74
2022-11-21T11:48:17.511Z,980.64
2022-11-21T11:49:20.722Z,980.60
2022-11-21T11:50:18.495Z,980.59
2022-11-21T11:51:17.489Z,980.60
2022-11-21T11:52:17.494Z,980.57
2022-11-21T11:53:17.487Z,980.53
2022-11-21T11:54:17.467Z,980.51
2022-11-21T11:55:17.454Z,980.57
2022-11-21T11:56:17.444Z,980.48
2022-11-21T11:57:17.454Z,980.44
2022-11-21T11:58:17.438Z,980.47
2022-11-21T11:59:17.424Z,980.43
2022-11-21T12:00:17.415Z,980.48
2022-11-21T12:01:17.423Z,980.50
2022-11-21T12:02:17.501Z,980.49
2022-11-21T12:03:17.415Z,980.48
2022-11-21T12:04:17.395Z,980.36
2022-11-21T12:05:17.383Z,980.43
2022-11-21T12:06:17.380Z,980.41
2022-11-21T12:08:33.307Z,980.46
2022-11-21T12:09:19.402Z,980.43
2022-11-21T12:10:17.343Z,980.41
2022-11-21T12:11:21.097Z,980.35
2022-11-21T12:12:18.335Z,980.41
2022-11-21T12:13:17.343Z,980.35
2022-11-21T12:14:17.331Z,980.45
2022-11-21T12:15:17.320Z,980.38
2022-11-21T12:16:17.305Z,980.42
2022-11-21T12:17:17.299Z,980.41
2022-11-21T12:18:17.298Z,980.42
2022-11-21T12:19:17.283Z,980.36
2022-11-21T12:20:17.278Z,980.31
2022-11-21T12:21:17.284Z,980.26
2022-11-21T12:22:17.265Z,980.27
2022-11-21T12:23:17.267Z,980.19
2022-11-21T12:24:17.252Z,980.22
2022-11-21T12:25:17.249Z,980.21
2022-11-21T12:26:17.305Z,980.19
2022-11-21T12:27:17.240Z,980.17
2022-11-21T12:28:17.250Z,980.20
2022-11-21T12:29:17.230Z,980.16